Time;durP1;ratioP1;P1;durP2;ratioP2;P2;SDS_P1;SDS_P2;PMS_P1;PMS_P2;Temp;Humidity;BMP_temperature;BMP_pressure;BME280_temperature;BME280_humidity;BME280_pressure;Samples;Min_cycle;Max_cycle;Signal;HPM_P1;HPM_P2
2024/04/06 00:01:48;;;;;;;5.97;2.50;;;;;;;10.09;63.11;99271.09;5072094;28;20032;-79
2024/04/06 00:04:14;;;;;;;5.38;2.03;;;;;;;9.92;63.93;99265.88;5072321;28;20523;-79
2024/04/06 00:06:39;;;;;;;7.97;2.80;;;;;;;9.55;64.75;99222.69;5073451;28;20111;-81
2024/04/06 00:09:05;;;;;;;4.82;2.35;;;;;;;9.94;65.28;99283.59;5071776;28;20115;-79
2024/04/06 00:11:30;;;;;;;6.25;1.90;;;;;;;9.82;65.36;99251.81;5071563;28;20041;-80
2024/04/06 00:13:56;;;;;;;6.50;2.50;;;;;;;9.80;65.69;99251.47;5073307;28;20028;-80
2024/04/06 00:16:21;;;;;;;5.57;2.45;;;;;;;9.96;65.87;99264.59;5071909;28;20559;-79
2024/04/06 00:18:46;;;;;;;4.95;2.55;;;;;;;9.54;65.92;99193.53;5071981;28;20040;-80
2024/04/06 00:21:12;;;;;;;5.97;2.42;;;;;;;9.95;66.26;99263.03;5071841;28;20482;-81
2024/04/06 00:23:37;;;;;;;8.00;2.40;;;;;;;9.90;66.64;99255.25;5071660;28;20054;-80
2024/04/06 00:26:03;;;;;;;7.00;2.50;;;;;;;9.89;65.52;99241.84;5071553;28;20131;-79
2024/04/06 00:28:29;;;;;;;4.80;2.03;;;;;;;10.10;65.18;99263.59;5071908;28;20027;-79
2024/04/06 00:30:54;;;;;;;7.57;1.98;;;;;;;9.85;65.12;99225.38;5058250;28;20055;-81
2024/04/06 00:33:21;;;;;;;4.25;1.92;;;;;;;10.11;64.14;99256.91;5071555;28;20138;-79
2024/04/06 00:35:46;;;;;;;3.80;1.73;;;;;;;10.15;63.70;99260.38;5072556;28;20170;-81
2024/04/06 00:38:11;;;;;;;4.82;1.48;;;;;;;10.39;63.45;99261.97;5072841;28;20519;-79
2024/04/06 00:40:37;;;;;;;3.85;1.73;;;;;;;10.58;61.55;99252.94;5071235;28;20589;-80
2024/04/06 00:43:03;;;;;;;5.38;1.80;;;;;;;10.96;59.91;99267.22;5071657;28;20036;-79
2024/04/06 00:45:29;;;;;;;2.95;1.65;;;;;;;11.01;59.40;99244.59;5071023;28;20028;-79
2024/04/06 00:47:54;;;;;;;2.95;1.42;;;;;;;10.91;59.20;99217.19;5071199;28;20441;-79
2024/04/06 00:50:19;;;;;;;2.90;1.70;;;;;;;11.03;59.34;99235.84;5072536;28;20482;-80
2024/04/06 00:52:45;;;;;;;3.17;1.67;;;;;;;11.19;58.97;99216.56;5072528;28;20029;-80
2024/04/06 00:55:11;;;;;;;2.78;1.70;;;;;;;11.33;57.57;99198.88;5058917;28;20037;-79
2024/04/06 00:57:37;;;;;;;4.05;1.83;;;;;;;11.50;57.54;99214.31;5072662;28;20537;-80
2024/04/06 01:00:03;;;;;;;3.08;1.70;;;;;;;11.48;56.96;99194.59;5070983;28;20482;-81
2024/04/06 01:02:28;;;;;;;6.18;1.77;;;;;;;11.73;56.01;99221.69;5070923;28;20033;-79
2024/04/06 01:04:54;;;;;;;4.10;1.60;;;;;;;11.70;55.31;99214.22;5072112;28;20032;-79
2024/04/06 01:07:19;;;;;;;2.80;1.48;;;;;;;11.76;55.18;99212.53;5070991;28;20395;-81
2024/04/06 01:09:45;;;;;;;7.50;1.85;;;;;;;11.34;57.40;99236.38;5070800;28;20450;-80
2024/04/06 01:12:11;;;;;;;4.63;2.50;;;;;;;10.78;59.07;99222.56;5070980;28;20032;-79
2024/04/06 01:14:37;;;;;;;6.45;2.17;;;;;;;10.53;59.26;99231.31;5070753;28;20112;-79
2024/04/06 01:17:03;;;;;;;3.17;1.85;;;;;;;10.27;60.18;99259.81;5072422;28;20032;-79
2024/04/06 01:19:28;;;;;;;4.68;2.30;;;;;;;9.99;62.39;99246.44;5070662;28;20555;-79
2024/04/06 01:21:54;;;;;;;9.50;2.30;;;;;;;9.77;63.22;99227.44;5070669;28;20523;-81
2024/04/06 01:24:26;;;;;;;4.28;1.83;;;;;;;9.54;62.96;99246.72;5070233;28;20036;-80
2024/04/06 01:26:52;;;;;;;3.78;1.45;;;;;;;9.27;64.19;99248.69;5070560;28;20029;-81
2024/04/06 01:29:18;;;;;;;3.90;1.55;;;;;;;8.90;65.30;99216.47;5071592;28;20444;-79
2024/04/06 01:31:44;;;;;;;2.67;1.42;;;;;;;9.01;66.20;99254.91;5070470;28;20103;-80
2024/04/06 01:34:10;;;;;;;2.50;1.20;;;;;;;8.98;66.77;99260.06;5070627;28;20513;-80
2024/04/06 01:36:36;;;;;;;3.67;1.77;;;;;;;8.57;67.62;99191.25;5070020;28;20171;-80
2024/04/06 01:39:02;;;;;;;4.47;1.40;;;;;;;9.02;68.08;99275.78;5070011;28;20107;-80
2024/04/06 01:41:28;;;;;;;3.45;1.80;;;;;;;8.68;68.74;99215.94;5070507;28;20557;-80
2024/04/06 01:43:53;;;;;;;3.08;1.50;;;;;;;8.79;69.45;99215.81;5070186;28;20507;-81
2024/04/06 01:46:19;;;;;;;3.25;1.45;;;;;;;8.93;69.14;99216.41;5071655;28;20485;-81
2024/04/06 01:48:45;;;;;;;4.57;1.45;;;;;;;9.13;68.57;99240.59;5071194;28;20121;-80
2024/04/06 01:51:11;;;;;;;4.65;1.58;;;;;;;9.06;68.47;99218.63;5070089;28;20024;-80
2024/04/06 01:53:36;;;;;;;2.47;1.55;;;;;;;9.35;68.22;99241.88;5069854;28;20455;-80
2024/04/06 01:56:01;;;;;;;4.95;1.60;;;;;;;8.79;67.61;99156.00;5069834;28;20060;-79
2024/04/06 01:58:27;;;;;;;2.10;1.52;;;;;;;9.30;67.47;99212.78;5070087;28;20029;-80
2024/04/06 02:00:52;;;;;;;5.03;1.90;;;;;;;9.37;67.46;99220.19;5071654;28;20875;-80
2024/04/06 02:03:17;;;;;;;3.58;1.55;;;;;;;9.57;65.93;99232.09;5070092;28;20024;-82
2024/04/06 02:05:43;;;;;;;3.03;1.63;;;;;;;9.29;65.35;99215.94;5070136;28;20035;-80
2024/04/06 02:08:08;;;;;;;2.03;1.25;;;;;;;9.22;67.00;99227.84;5069642;28;20112;-80
2024/04/06 02:10:34;;;;;;;4.82;1.70;;;;;;;8.79;67.57;99230.38;5070078;28;20036;-80
2024/04/06 02:12:59;;;;;;;4.47;1.65;;;;;;;8.68;68.60;99237.22;5069789;28;20482;-81
2024/04/06 02:15:25;;;;;;;3.60;1.98;;;;;;;8.70;68.63;99251.34;5069835;28;20107;-80
2024/04/06 02:17:50;;;;;;;3.97;1.90;;;;;;;8.62;69.48;99220.31;5071034;28;20111;-79
2024/04/06 02:20:15;;;;;;;4.32;2.00;;;;;;;8.92;69.28;99249.91;5071148;28;20029;-81
2024/04/06 02:22:41;;;;;;;3.75;1.45;;;;;;;8.78;69.46;99214.25;5070871;28;20020;-82
2024/04/06 02:25:07;;;;;;;2.63;1.52;;;;;;;8.92;69.59;99214.09;5070000;28;20020;-80
2024/04/06 02:27:33;;;;;;;5.10;1.90;;;;;;;8.84;69.60;99199.63;5066400;28;20015;-79
2024/04/06 02:29:59;;;;;;;4.60;1.98;;;;;;;8.75;69.03;99176.50;5059738;28;20479;-80
2024/04/06 02:32:26;;;;;;;4.03;1.60;;;;;;;9.06;68.89;99207.59;5069521;28;20073;-80
2024/04/06 02:34:52;;;;;;;8.45;2.63;;;;;;;8.87;68.53;99162.19;5069485;28;20052;-80
2024/04/06 02:37:17;;;;;;;2.72;1.77;;;;;;;9.37;68.67;99220.19;5069255;28;20490;-80
2024/04/06 02:39:42;;;;;;;4.60;2.17;;;;;;;9.14;68.81;99184.28;5059831;28;20119;-80
2024/04/06 02:42:08;;;;;;;8.52;2.03;;;;;;;9.24;66.89;99219.19;5066593;28;20020;-80
2024/04/06 02:44:33;;;;;;;4.05;1.88;;;;;;;8.70;67.45;99180.50;5070401;28;20032;-81
2024/04/06 02:46:59;;;;;;;5.05;2.58;;;;;;;8.77;68.71;99216.22;5069588;28;20012;-81
2024/04/06 02:49:24;;;;;;;9.75;2.38;;;;;;;8.49;69.03;99178.00;5070832;28;20024;-80
2024/04/06 02:51:50;;;;;;;7.28;2.72;;;;;;;8.62;70.13;99201.03;5069218;28;20044;-80
2024/04/06 02:54:15;;;;;;;3.78;2.13;;;;;;;8.61;71.79;99205.00;5069717;28;20061;-82
2024/04/06 02:56:40;;;;;;;5.80;2.80;;;;;;;8.86;72.22;99216.50;5069400;28;20048;-80
2024/04/06 02:59:07;;;;;;;4.18;2.08;;;;;;;8.83;71.68;99200.81;5069782;28;20481;-81
2024/04/06 03:01:32;;;;;;;3.00;1.88;;;;;;;8.86;71.51;99182.69;5069646;28;20470;-81
2024/04/06 03:03:58;;;;;;;7.22;3.83;;;;;;;8.91;70.44;99179.47;5069340;28;20055;-80
2024/04/06 03:06:23;;;;;;;6.40;2.80;;;;;;;9.38;70.40;99235.53;5069571;28;20024;-81
2024/04/06 03:08:49;;;;;;;5.13;2.15;;;;;;;9.49;70.14;99227.88;5073351;28;20097;-80
2024/04/06 03:11:14;;;;;;;5.53;1.75;;;;;;;9.52;69.54;99221.53;5074602;28;20555;-80
2024/04/06 03:13:39;;;;;;;4.68;1.63;;;;;;;9.11;69.64;99161.06;5073287;28;20035;-81
2024/04/06 03:16:06;;;;;;;9.35;1.95;;;;;;;9.39;69.82;99187.47;5073300;28;20032;-80
2024/04/06 03:18:31;;;;;;;4.03;1.85;;;;;;;9.49;69.59;99192.03;5073244;28;20025;-81
2024/04/06 03:20:57;;;;;;;5.85;2.33;;;;;;;9.59;69.84;99202.09;5072539;28;20028;-80
2024/04/06 03:23:23;;;;;;;1.20;1.10;;;;;;;9.45;68.46;99171.22;5072983;28;20020;-81
2024/04/06 03:25:48;;;;;;;4.47;1.60;;;;;;;9.64;67.91;99220.19;5073239;28;20090;-79
2024/04/06 03:28:17;;;;;;;5.82;1.63;;;;;;;9.38;67.89;99191.41;5072919;28;20577;-79
2024/04/06 03:30:43;;;;;;;4.10;1.30;;;;;;;9.62;68.10;99219.81;5072843;28;20512;-79
2024/04/06 03:33:08;;;;;;;7.53;1.55;;;;;;;9.57;67.56;99209.25;5073237;28;20028;-79
2024/04/06 03:35:34;;;;;;;2.78;1.80;;;;;;;9.55;68.10;99208.88;5074019;28;20462;-81
2024/04/06 03:37:59;;;;;;;3.88;1.98;;;;;;;9.29;68.83;99200.19;5072675;28;20024;-79
2024/04/06 03:40:24;;;;;;;3.67;1.65;;;;;;;9.34;69.64;99230.03;5072609;28;20456;-80
2024/04/06 03:42:57;;;;;;;5.57;1.70;;;;;;;9.50;70.24;99239.69;5072715;28;20657;-80
2024/04/06 03:45:23;;;;;;;2.85;1.70;;;;;;;9.43;70.01;99218.50;5073716;28;20545;-79
2024/04/06 03:47:48;;;;;;;7.35;2.63;;;;;;;9.62;70.30;99239.91;5072467;28;20107;-80
2024/04/06 03:50:18;;;;;;;3.78;1.85;;;;;;;9.92;69.16;99252.84;5073570;28;20028;-79
2024/04/06 03:52:44;;;;;;;1.98;1.50;;;;;;;9.80;68.80;99218.34;5072667;28;20410;-83
2024/04/06 03:55:09;;;;;;;5.75;1.58;;;;;;;9.89;68.33;99211.50;5072688;28;20059;-83
2024/04/06 03:57:35;;;;;;;2.33;1.40;;;;;;;9.78;66.99;99206.94;5072270;28;20080;-80
2024/04/06 04:00:02;;;;;;;4.35;1.27;;;;;;;9.97;66.59;99254.34;5072334;28;20048;-79
2024/04/06 04:02:27;;;;;;;3.20;1.52;;;;;;;9.67;67.55;99233.13;5072136;28;20044;-82
2024/04/06 04:04:53;;;;;;;4.10;1.70;;;;;;;9.61;67.92;99221.78;5071756;28;20090;-82
2024/04/06 04:07:18;;;;;;;5.57;2.10;;;;;;;9.66;67.33;99245.38;5072146;28;20029;-80
2024/04/06 04:09:44;;;;;;;4.05;1.85;;;;;;;9.49;67.84;99236.16;5071879;28;20117;-80
2024/04/06 04:12:09;;;;;;;4.68;2.10;;;;;;;9.62;68.86;99255.69;5072120;28;20067;-81
2024/04/06 04:14:34;;;;;;;6.15;2.00;;;;;;;9.48;69.03;99200.72;5071956;28;20021;-80
2024/04/06 04:17:00;;;;;;;5.63;2.33;;;;;;;9.46;69.38;99220.47;5072076;28;20033;-81
2024/04/06 04:19:25;;;;;;;4.53;2.30;;;;;;;9.64;70.02;99232.00;5071764;28;20059;-80
2024/04/06 04:21:51;;;;;;;6.60;2.10;;;;;;;9.58;70.25;99205.31;5072193;28;20561;-79
2024/04/06 04:24:18;;;;;;;5.03;1.90;;;;;;;10.08;69.72;99239.19;5071899;28;20490;-80
2024/04/06 04:26:44;;;;;;;6.70;2.38;;;;;;;9.86;68.29;99170.94;5073043;28;20508;-80
2024/04/06 04:29:09;;;;;;;3.05;1.67;;;;;;;10.30;67.29;99234.13;5072900;28;20028;-80
2024/04/06 04:31:34;;;;;;;4.32;1.80;;;;;;;10.67;65.45;99240.56;5071757;28;20055;-80
2024/04/06 04:34:00;;;;;;;2.78;1.83;;;;;;;10.80;65.56;99222.09;5071477;28;20490;-81
2024/04/06 04:36:25;;;;;;;;;;;;;;;11.26;64.56;99266.22;5072014;28;20481;-80
2024/04/06 04:38:50;;;;;;;;;;;;;;;11.29;64.37;99268.09;5073740;28;19919;-80
2024/04/06 04:41:16;;;;;;;;;;;;;;;11.68;63.04;99263.72;5073330;28;19916;-82
2024/04/06 04:43:41;;;;;;;;;;;;;;;11.89;60.40;99248.63;5072159;28;19919;-80
2024/04/06 04:46:06;;;;;;;;;;;;;;;12.24;58.41;99248.53;5071974;28;20397;-81
2024/04/06 04:48:50;;;;;;;;;;;;;;;12.29;57.65;99238.16;5073159;28;20019;-83
2024/04/06 04:51:15;;;;;;;;;;;;;;;12.33;58.04;99241.59;5055507;28;20015;-80
2024/04/06 04:53:41;;;;;;;;;;;;;;;12.35;58.35;99244.72;5071870;28;19978;-81
2024/04/06 04:56:06;;;;;;;;;;;;;;;12.49;58.10;99247.09;5071710;28;20374;-82
2024/04/06 04:58:31;;;;;;;;;;;;;;;12.67;57.86;99252.97;5071812;28;19978;-80
2024/04/06 05:00:56;;;;;;;;;;;;;;;13.31;57.60;99253.97;5071709;28;20425;-80
2024/04/06 05:03:22;;;;;;;;;;;;;;;14.96;53.28;99257.31;5071596;28;20011;-80
2024/04/06 05:05:47;;;;;;;;;;;;;;;15.64;48.86;99250.78;5073009;28;19916;-81
2024/04/06 05:08:13;;;;;;;;;;;;;;;16.28;46.92;99249.00;5065713;28;19924;-81
2024/04/06 05:10:40;;;;;;;;;;;;;;;16.42;44.99;99241.28;5072728;28;20344;-81
2024/04/06 05:13:05;;;;;;;;;;;;;;;16.23;45.41;99257.19;5072613;28;19917;-80
2024/04/06 05:15:30;;;;;;;;;;;;;;;17.09;44.29;99253.09;5072724;28;19973;-82
2024/04/06 05:17:55;;;;;;;;;;;;;;;18.23;41.16;99245.72;5070726;28;19921;-80
2024/04/06 05:20:21;;;;;;;;;;;;;;;18.74;40.35;99235.63;5068493;28;20309;-79
2024/04/06 05:22:46;;;;;;;;;;;;;;;19.62;39.00;99244.88;5068658;28;20015;-81
2024/04/06 05:25:11;;;;;;;;;;;;;;;18.99;39.56;99251.88;5071265;28;19916;-81
2024/04/06 05:27:37;;;;;;;;;;;;;;;19.12;39.28;99252.38;5071011;28;19938;-83
2024/04/06 05:30:02;;;;;;;;;;;;;;;20.07;37.87;99254.00;5071368;28;20373;-82
2024/04/06 05:32:27;;;;;;;;;;;;;;;19.65;37.53;99259.97;5070649;28;19924;-80
2024/04/06 05:34:53;;;;;;;;;;;;;;;18.76;39.46;99255.50;5065920;28;19921;-80
2024/04/06 05:37:18;;;;;;;;;;;;;;;19.51;39.12;99264.31;5064194;28;19917;-80
2024/04/06 05:39:43;;;;;;;;;;;;;;;19.43;39.91;99268.72;5064216;28;20393;-79
2024/04/06 05:42:08;;;;;;;;;;;;;;;19.15;40.59;99257.03;5068812;28;19912;-81
2024/04/06 05:44:34;;;;;;;;;;;;;;;18.63;42.73;99269.72;5065158;28;19991;-83
2024/04/06 05:46:59;;;;;;;;;;;;;;;17.76;44.02;99270.81;5070624;28;19947;-80
2024/04/06 05:49:24;;;;;;;;;;;;;;;18.20;43.78;99279.47;5070232;28;19912;-82
2024/04/06 05:51:50;;;;;;;;;;;;;;;19.10;40.87;99277.31;5070435;28;20011;-80
2024/04/06 05:54:15;;;;;;;;;;;;;;;19.71;38.98;99283.25;5070549;28;20348;-82
2024/04/06 05:56:41;;;;;;;;;;;;;;;19.87;38.40;99277.16;5070623;28;19924;-84
2024/04/06 05:59:07;;;;;;;;;;;;;;;20.03;38.22;99276.63;5070841;28;19968;-83
2024/04/06 06:01:32;;;;;;;;;;;;;;;21.54;35.95;99279.28;5070863;28;19920;-83
2024/04/06 06:03:58;;;;;;;;;;;;;;;23.12;33.98;99277.72;5071002;28;19924;-83
2024/04/06 06:06:23;;;;;;;;;;;;;;;24.45;31.11;99267.78;5062086;28;19963;-82
2024/04/06 06:08:48;;;;;;;;;;;;;;;25.28;30.67;99269.47;5069037;28;20003;-83
2024/04/06 06:11:14;;;;;;;;;;;;;;;26.62;28.37;99269.88;5070428;28;19916;-85
2024/04/06 06:13:39;;;;;;;;;;;;;;;27.43;27.03;99267.75;5069974;28;19916;-83
2024/04/06 06:16:04;;;;;;;;;;;;;;;27.94;25.60;99271.38;5068930;28;19912;-83
2024/04/06 06:18:30;;;;;;;;;;;;;;;28.78;25.60;99271.91;5068211;28;20381;-84
2024/04/06 06:20:55;;;;;;;;;;;;;;;29.07;24.44;99265.84;5068853;28;19913;-83
2024/04/06 06:23:20;;;;;;;;;;;;;;;29.06;23.92;99272.84;5070168;28;19916;-83
2024/04/06 06:25:47;;;;;;;;;;;;;;;28.87;23.76;99266.56;5069060;28;20492;-83
2024/04/06 06:28:13;;;;;;;;;;;;;;;29.30;23.15;99276.72;5069538;28;20348;-84
2024/04/06 06:30:40;;;;;;;;;;;;;;;30.12;22.94;99276.06;5069810;28;19970;-83
2024/04/06 06:33:05;;;;;;;;;;;;;;;30.45;22.83;99274.41;5069842;28;19924;-84
2024/04/06 06:35:31;;;;;;;;;;;;;;;30.94;21.99;99259.28;5069825;28;19917;-83
2024/04/06 06:37:56;;;;;;;;;;;;;;;31.22;22.02;99259.25;5069972;28;19913;-85
2024/04/06 06:40:21;;;;;;;;;;;;;;;32.06;22.22;99263.03;5069884;28;19912;-83
2024/04/06 06:42:47;;;;;;;;;;;;;;;31.91;21.76;99266.63;5072770;28;19920;-83
2024/04/06 06:45:12;;;;;;;;;;;;;;;32.06;22.18;99273.69;5073810;28;19923;-84
2024/04/06 06:47:37;;;;;;;;;;;;;;;32.37;21.11;99265.88;5074455;28;19970;-84
2024/04/06 06:50:03;;;;;;;;;;;;;;;32.47;21.69;99266.81;5074119;28;20037;-83
2024/04/06 06:52:28;;;;;;;;;;;;;;;32.67;21.68;99266.59;5073932;28;20445;-82
2024/04/06 06:54:53;;;;;;;;;;;;;;;33.35;20.55;99274.16;5073788;28;19923;-85
2024/04/06 06:57:18;;;;;;;;;;;;;;;32.32;21.59;99271.22;5073784;28;19952;-83
2024/04/06 06:59:44;;;;;;;;;;;;;;;32.35;21.76;99277.13;5074594;28;20491;-82
2024/04/06 07:02:09;;;;;;;;;;;;;;;32.82;21.53;99285.81;5074896;28;19923;-85
2024/04/06 07:04:36;;;;;;;;;;;;;;;32.56;21.30;99286.22;5073318;28;19916;-84
2024/04/06 07:07:01;;;;;;;;;;;;;;;31.86;22.39;99287.59;5074796;28;19920;-84
2024/04/06 07:09:26;;;;;;;;;;;;;;;30.92;23.34;99279.09;5073370;28;19920;-85
2024/04/06 07:11:52;;;;;;;;;;;;;;;29.93;23.30;99282.00;5074719;28;19916;-82
2024/04/06 07:14:17;;;;;;;;;;;;;;;29.45;24.12;99285.47;5073073;28;19912;-82
2024/04/06 07:16:42;;;;;;;;;;;;;;;30.76;23.72;99283.16;5073337;28;19970;-81
2024/04/06 07:19:07;;;;;;;;;;;;;;;31.65;22.70;99283.38;5073493;28;20011;-84
2024/04/06 07:21:33;;;;;;;;;;;;;;;31.00;22.94;99285.56;5073470;28;19920;-83
2024/04/06 07:23:58;;;;;;;;;;;;;;;31.98;21.33;99290.84;5073407;28;20400;-84
2024/04/06 07:26:24;;;;;;;;;;;;;;;31.99;20.99;99286.66;5073275;28;19920;-83
2024/04/06 07:28:51;;;;;;;;;;;;;;;29.46;23.70;99287.00;5068975;28;20038;-83
2024/04/06 07:31:16;;;;;;;;;;;;;;;29.29;24.47;99287.38;5068572;28;19921;-84
2024/04/06 07:33:41;;;;;;;;;;;;;;;31.12;22.91;99281.09;5066671;28;19961;-82
2024/04/06 07:36:07;;;;;;;;;;;;;;;30.79;23.01;99285.69;5073289;28;19912;-83
2024/04/06 07:38:32;;;;;;;;;;;;;;;31.67;21.48;99290.03;5073286;28;19913;-83
2024/04/06 07:40:58;;;;;;;;;;;;;;;28.44;24.55;99286.00;5073242;28;19969;-83
2024/04/06 07:43:23;;;;;;;;;;;;;;;29.01;24.05;99284.34;5073168;28;20373;-82
2024/04/06 07:45:48;;;;;;;;;;;;;;;28.99;24.68;99276.38;5072799;28;20401;-83
2024/04/06 07:48:14;;;;;;;;;;;;;;;27.34;25.62;99278.75;5073874;28;20366;-83
2024/04/06 07:50:39;;;;;;;;;;;;;;;26.14;26.82;99273.44;5073026;28;19998;-83
2024/04/06 07:53:04;;;;;;;;;;;;;;;24.83;29.02;99277.41;5073602;28;20412;-82
2024/04/06 07:55:29;;;;;;;;;;;;;;;23.90;30.11;99264.50;5073895;28;19923;-84
2024/04/06 07:57:55;;;;;;;;;;;;;;;23.69;30.78;99268.09;5073528;28;19932;-84
2024/04/06 08:00:20;;;;;;;;;;;;;;;23.99;31.93;99276.81;5071108;28;19917;-84
2024/04/06 08:02:45;;;;;;;;;;;;;;;23.98;30.90;99266.81;5073175;28;19923;-85
2024/04/06 08:05:12;;;;;;;;;;;;;;;24.12;30.86;99266.53;5071618;28;19935;-83
2024/04/06 08:07:37;;;;;;;;;;;;;;;23.79;30.51;99260.91;5071485;28;20343;-82
2024/04/06 08:10:13;;;;;;;;;;;;;;;23.74;30.02;99268.09;5071640;28;19923;-83
2024/04/06 08:12:38;;;;;;;;;;;;;;;23.86;30.47;99260.41;5073601;28;20393;-85
2024/04/06 08:15:04;;;;;;;;;;;;;;;24.02;29.77;99259.63;5072028;28;19924;-83
2024/04/06 08:17:29;;;;;;;;;;;;;;;24.12;32.21;99254.44;5073339;28;19912;-82
2024/04/06 08:19:54;;;;;;;;;;;;;;;24.04;29.86;99253.47;5073738;28;19912;-85
2024/04/06 08:22:19;;;;;;;;;;;;;;;23.80;31.46;99248.34;5072452;28;20374;-83
2024/04/06 08:24:45;;;;;;;;;;;;;;;23.89;33.21;99242.44;5073515;28;19912;-83
2024/04/06 08:27:10;;;;;;;;;;;;;;;24.01;31.94;99255.25;5072188;28;19920;-83
2024/04/06 08:29:35;;;;;;;;;;;;;;;24.27;29.73;99250.09;5073395;28;19999;-83
2024/04/06 08:32:01;;;;;;;;;;;;;;;24.30;30.31;99234.94;5071868;28;19921;-84
2024/04/06 08:34:26;;;;;;;;;;;;;;;24.41;30.71;99234.16;5072287;28;19985;-82
2024/04/06 08:36:51;;;;;;;;;;;;;;;24.72;29.56;99225.28;5073219;28;20445;-84
2024/04/06 08:39:17;;;;;;;;;;;;;;;25.00;30.08;99230.06;5072182;28;19917;-86
2024/04/06 08:41:43;;;;;;;;;;;;;;;25.20;30.23;99231.75;5071184;28;20004;-83
2024/04/06 08:44:11;;;;;;;;;;;;;;;25.36;29.27;99211.06;5058539;28;19912;-84
2024/04/06 08:46:37;;;;;;;;;;;;;;;25.52;28.47;99207.31;5064066;28;19966;-81
2024/04/06 08:49:02;;;;;;;;;;;;;;;25.53;29.58;99203.19;5063198;28;19917;-81
2024/04/06 08:51:29;;;;;;;;;;;;;;;25.87;30.94;99207.28;5065562;28;20309;-81
2024/04/06 08:53:54;;;;;;;;;;;;;;;26.12;28.12;99204.44;5072088;28;20012;-81
2024/04/06 08:56:21;;;;;;;;;;;;;;;26.40;27.93;99193.63;5053817;28;20015;-82
2024/04/06 08:58:46;;;;;;;;;;;;;;;26.88;29.02;99192.75;5071623;28;20413;-82
2024/04/06 09:01:12;;;;;;;;;;;;;;;27.21;27.75;99180.13;5071894;28;19947;-81
2024/04/06 09:03:38;;;;;;;;;;;;;;;27.79;28.02;99176.63;5071533;28;20015;-79
2024/04/06 09:06:03;;;;;;;;;;;;;;;27.99;25.77;99178.06;5072073;28;20464;-82
2024/04/06 09:08:28;;;;;;;;;;;;;;;27.44;25.84;99174.88;5071129;28;20372;-82
2024/04/06 09:11:06;;;;;;;;;;;;;;;27.83;25.32;99174.22;5070636;28;20397;-80
2024/04/06 09:13:32;;;;;;;;;;;;;;;27.84;26.97;99168.00;5060896;28;19963;-83
2024/04/06 09:15:57;;;;;;;;;;;;;;;27.94;25.65;99174.00;5068073;28;19949;-83
2024/04/06 09:18:22;;;;;;;;;;;;;;;27.65;24.44;99177.91;5071278;28;20420;-83
2024/04/06 09:20:51;;;;;;;;;;;;;;;27.43;24.42;99184.69;5071071;28;19920;-80
2024/04/06 09:23:17;;;;;;;;;;;;;;;27.42;23.76;99186.00;5070845;28;20404;-81
2024/04/06 09:25:42;;;;;;;;;;;;;;;27.52;24.53;99187.94;5070678;28;20445;-81
2024/04/06 09:28:09;;;;;;;;;;;;;;;27.64;23.75;99193.41;5071210;28;19970;-82
2024/04/06 09:30:41;;;;;;;;;;;;;;;27.18;24.06;99180.47;5072389;28;20344;-80
2024/04/06 09:33:07;;;;;;;;;;;;;;;27.60;25.46;99178.78;5061959;28;19916;-80
2024/04/06 09:35:33;;;;;;;;;;;;;;;27.72;23.13;99177.28;5067404;28;20731;-79
2024/04/06 09:37:58;;;;;;;;;;;;;;;27.37;25.14;99173.41;5064029;28;19920;-80
2024/04/06 09:40:25;;;;;;;;;;;;;;;27.42;23.78;99169.75;5070049;28;20443;-80
2024/04/06 09:42:50;;;;;;;;;;;;;;;27.89;23.77;99157.84;5072369;28;20378;-83
2024/04/06 09:45:16;;;;;;;;;;;;;;;27.55;24.15;99159.78;5058686;28;19964;-80
2024/04/06 09:47:43;;;;;;;;;;;;;;;27.43;24.57;99164.81;5058921;28;19928;-80
2024/04/06 09:50:09;;;;;;;;;;;;;;;27.15;23.82;99153.94;5065990;28;20019;-80
2024/04/06 09:52:35;;;;;;;;;;;;;;;27.46;24.96;99149.56;5055747;28;20399;-81
2024/04/06 09:55:03;;;;;;;;;;;;;;;27.29;23.35;99152.69;5054218;28;19935;-84
2024/04/06 09:57:29;;;;;;;;;;;;;;;27.29;23.92;99144.16;5063038;28;20434;-83
2024/04/06 10:00:00;;;;;;;;;;;;;;;27.42;23.45;99149.13;5070747;28;19924;-80
2024/04/06 10:02:31;;;;;;;;;;;;;;;27.51;23.53;99143.03;5067881;28;21178;-80
2024/04/06 10:04:56;;;;;;;;;;;;;;;27.67;23.66;99141.22;5064240;28;19912;-79
2024/04/06 10:07:29;;;;;;;;;;;;;;;27.68;24.00;99139.91;5070198;28;19920;-82
2024/04/06 10:10:03;;;;;;;;;;;;;;;27.79;22.64;99134.78;5070359;28;20317;-82
2024/04/06 10:12:36;;;;;;;;;;;;;;;27.69;21.24;99132.91;5070442;28;19916;-78
2024/04/06 10:15:03;;;;;;;;;;;;;;;27.57;20.90;99125.91;5057040;28;19920;-80
2024/04/06 10:17:28;;;;;;;;;;;;;;;27.75;21.20;99128.66;5070548;28;19920;-79
2024/04/06 10:19:53;;;;;;;;;;;;;;;28.21;20.32;99127.25;5069963;28;19913;-80
2024/04/06 10:22:24;;;;;;;;;;;;;;;28.50;20.32;99125.38;5070044;28;19919;-82
2024/04/06 10:25:00;;;;;;;;;;;;;;;27.83;20.26;99109.66;5058868;28;19959;-80
2024/04/06 10:27:25;;;;;;;;;;;;;;;27.17;19.70;99105.94;5070673;28;19916;-82
2024/04/06 10:29:52;;;;;;;;;;;;;;;27.12;20.21;99103.97;5070102;28;20345;-82
2024/04/06 10:32:17;;;;;;;;;;;;;;;26.95;20.41;99106.28;5066129;28;19924;-79
2024/04/06 10:34:42;;;;;;;;;;;;;;;26.90;21.29;99098.63;5069770;28;19920;-79
2024/04/06 10:37:08;;;;;;;;;;;;;;;26.47;21.46;99085.31;5066794;28;19917;-81
2024/04/06 10:39:33;;;;;;;;;;;;;;;26.41;22.80;99089.53;5062234;28;19924;-78
2024/04/06 10:41:58;;;;;;;;;;;;;;;26.52;23.38;99084.50;5071533;28;19917;-80
2024/04/06 10:44:25;;;;;;;;;;;;;;;26.25;21.74;99082.78;5070113;28;20413;-78
2024/04/06 10:46:50;;;;;;;;;;;;;;;26.10;21.78;99079.63;5070157;28;20386;-79
2024/04/06 10:49:16;;;;;;;;;;;;;;;26.28;21.36;99078.91;5069992;28;19928;-78
2024/04/06 10:51:41;;;;;;;;;;;;;;;26.24;21.69;99067.09;5070188;28;19955;-79
2024/04/06 10:54:07;;;;;;;;;;;;;;;26.14;21.64;99068.75;5069720;28;20382;-78
2024/04/06 10:56:33;;;;;;;;;;;;;;;26.32;21.47;99063.13;5059412;28;19921;-82
2024/04/06 10:58:59;;;;;;;;;;;;;;;26.22;20.59;99053.41;5057720;28;20329;-79
2024/04/06 11:01:26;;;;;;;;;;;;;;;26.27;21.64;99049.81;5062776;28;19943;-80
2024/04/06 11:03:52;;;;;;;;;;;;;;;26.30;20.63;99045.09;5051908;28;19925;-80
2024/04/06 11:06:19;;;;;;;;;;;;;;;26.25;19.76;99043.13;5058398;28;19929;-78
2024/04/06 11:08:45;;;;;;;;;;;;;;;26.32;22.43;99028.34;5058234;28;19921;-80
2024/04/06 11:11:12;;;;;;;;;;;;;;;26.32;19.70;99031.94;5056824;28;20017;-79
2024/04/06 11:13:41;;;;;;;;;;;;;;;26.34;21.45;99026.50;5066122;28;20011;-79
2024/04/06 11:16:09;;;;;;;;;;;;;;;26.34;19.79;99025.75;5061477;28;19921;-81
2024/04/06 11:18:40;;;;;;;;;;;;;;;26.40;20.16;99022.84;5061985;28;19921;-82
2024/04/06 11:21:09;;;;;;;;;;;;;;;26.36;20.65;99022.38;5065280;28;19981;-83
2024/04/06 11:23:34;;;;;;;;;;;;;;;26.34;22.16;99017.25;5059138;28;19923;-81
2024/04/06 11:26:03;;;;;;;;;;;;;;;26.02;22.22;99019.97;5060236;28;20018;-80
2024/04/06 11:28:28;;;;;;;;;;;;;;;25.92;21.58;99019.56;5059169;28;19998;-80
2024/04/06 11:30:54;;;;;;;;;;;;;;;25.79;20.68;99010.25;5057166;28;20870;-82
2024/04/06 11:33:19;;;;;;;;;;;;;;;25.96;22.56;99012.84;5058308;28;19925;-80
2024/04/06 11:35:44;;;;;;;;;;;;;;;26.04;21.28;99003.19;5056904;28;19921;-79
2024/04/06 11:38:10;;;;;;;;;;;;;;;26.19;22.04;99002.75;5071500;28;19921;-80
2024/04/06 11:40:35;;;;;;;;;;;;;;;26.19;21.45;98991.41;5069789;28;19919;-79
2024/04/06 11:43:00;;;;;;;;;;;;;;;26.18;21.66;98989.88;5063282;28;19931;-79
2024/04/06 11:45:26;;;;;;;;;;;;;;;26.15;22.33;98997.41;5059686;28;20404;-79
2024/04/06 11:47:54;;;;;;;;;;;;;;;26.12;20.56;98986.38;5070738;28;19934;-80
2024/04/06 11:50:19;;;;;;;;;;;;;;;26.09;21.05;98981.78;5057141;28;19916;-82
2024/04/06 11:52:45;;;;;;;;;;;;;;;26.05;20.68;98973.59;5053506;28;20516;-80
2024/04/06 11:55:10;;;;;;;;;;;;;;;26.13;20.99;98970.91;5060224;28;20360;-81
2024/04/06 11:57:36;;;;;;;;;;;;;;;26.22;22.03;98965.59;5061296;28;19924;-81
2024/04/06 12:00:01;;;;;;;;;;;;;;;26.21;20.67;98961.25;5060881;28;19934;-82
2024/04/06 12:02:26;;;;;;;;;;;;;;;26.23;21.10;98955.03;5053825;28;19920;-80
2024/04/06 12:04:52;;;;;;;;;;;;;;;26.14;20.36;98963.94;5054545;28;19979;-79
2024/04/06 12:07:17;;;;;;;;;;;;;;;26.08;20.96;98958.38;5052560;28;19956;-79
2024/04/06 12:09:42;;;;;;;;;;;;;;;26.11;20.52;98950.84;5055741;28;20374;-81
2024/04/06 12:12:08;;;;;;;;;;;;;;;26.14;22.35;98955.44;5061113;28;19921;-80
2024/04/06 12:14:33;;;;;;;;;;;;;;;26.25;21.97;98947.56;5061335;28;20411;-79